• Join FlightAware (Why Join?)
  • Login
  • US Flag 
08:58PM EDT


 

Airport Tracker/Info


-or-


 

Live Flight TrackerFlight Track Log ✈ N508QS ✈ 22-Sep-2013 ✈ SBGL / GIG - KMIA

Flight Track Log - Related Links

Times and Time Zones

All times are in EDT time to prevent confusion due to time zone crossing. See the N508QS flight status page for this flight to view local times or setup timezone preferences in your user account.

Time Position Orientation Groundspeed Altitude Reporting Facility
EDT Latitude Longitude Course Direction KTS MPH feet Rate Location/Type
01:57PM 8.7182 -60.6571 332° Northwest  Level FlightAware Approximate
01:58PM 8.8270 -60.7155 332° Northwest  Level FlightAware Approximate
01:59PM 8.9358 -60.7739 332° Northwest  Level FlightAware Approximate
02:00PM 9.0446 -60.8324 332° Northwest  Level FlightAware Approximate
02:01PM 9.1534 -60.8909 332° Northwest  Level FlightAware Approximate
02:02PM 9.2622 -60.9495 332° Northwest  Level FlightAware Approximate
02:03PM 9.3709 -61.0081 332° Northwest  Level FlightAware Approximate
02:04PM 9.4797 -61.0667 332° Northwest  Level FlightAware Approximate
02:05PM 9.5884 -61.1254 332° Northwest  Level FlightAware Approximate
02:06PM 9.6971 -61.1841 332° Northwest  Level FlightAware Approximate
02:07PM 9.8059 -61.2428 332° Northwest  Level FlightAware Approximate
02:08PM 9.9144 -61.3018 332° Northwest  Level FlightAware Approximate
02:09PM 10.0229 -61.3610 332° Northwest  Level FlightAware Approximate
02:10PM 10.1314 -61.4202 332° Northwest  Level FlightAware Approximate
02:11PM 10.2399 -61.4795 332° Northwest  Level FlightAware Approximate
02:12PM 10.3484 -61.5387 332° Northwest  Level FlightAware Approximate
02:13PM 10.4568 -61.5981 332° Northwest  Level FlightAware Approximate
02:14PM 10.5653 -61.6575 332° Northwest  Level FlightAware Approximate
02:15PM 10.6737 -61.7169 332° Northwest  Level FlightAware Approximate
02:16PM 10.7822 -61.7764 332° Northwest  Level FlightAware Approximate
02:17PM 10.8906 -61.8359 332° Northwest  Level FlightAware Approximate
02:18PM 10.9990 -61.8954 332° Northwest  Level FlightAware Approximate
02:19PM 11.1074 -61.9550 332° Northwest  Level FlightAware Approximate
02:20PM 11.2158 -62.0147 332° Northwest  Level FlightAware Approximate
02:21PM 11.3241 -62.0744 332° Northwest  Level FlightAware Approximate
02:22PM 11.4325 -62.1341 332° Northwest  Level FlightAware Approximate
02:23PM 11.5408 -62.1939 332° Northwest  Level FlightAware Approximate
02:24PM 11.6492 -62.2537 332° Northwest  Level FlightAware Approximate
02:25PM 11.7575 -62.3136 332° Northwest  Level FlightAware Approximate
02:26PM 11.8658 -62.3735 332° Northwest  Level FlightAware Approximate
02:27PM 11.9741 -62.4334 332° Northwest  Level FlightAware Approximate
02:28PM 12.0824 -62.4935 332° Northwest  Level FlightAware Approximate
02:29PM 12.1906 -62.5535 332° Northwest  Level FlightAware Approximate
02:30PM 12.2989 -62.6136 332° Northwest  Level FlightAware Approximate
02:31PM 12.4072 -62.6738 332° Northwest  Level FlightAware Approximate
02:32PM 12.5154 -62.7340 331° Northwest  Level FlightAware Approximate
02:33PM 12.6236 -62.7943 331° Northwest  Level FlightAware Approximate
02:34PM 12.7318 -62.8546 331° Northwest  Level FlightAware Approximate
02:35PM 12.8400 -62.9149 331° Northwest  Level FlightAware Approximate
02:36PM 12.9482 -62.9753 331° Northwest  Level FlightAware Approximate
02:37PM 13.0563 -63.0358 331° Northwest  Level FlightAware Approximate
02:38PM 13.1645 -63.0963 331° Northwest  Level FlightAware Approximate
02:39PM 13.2726 -63.1569 331° Northwest  Level FlightAware Approximate
02:40PM 13.3808 -63.2175 331° Northwest  Level FlightAware Approximate
02:41PM 13.4889 -63.2782 331° Northwest  Level FlightAware Approximate
02:42PM 13.5970 -63.3390 331° Northwest  Level FlightAware Approximate
02:43PM 13.7050 -63.3997 331° Northwest  Level FlightAware Approximate
02:44PM 13.8131 -63.4606 331° Northwest  Level FlightAware Approximate
02:44PM 14.8667 -64.0500 331° Northwest 450 518 45,000  Level San Juan Center
02:45PM 13.9212 -63.5215 331° Northwest  Level FlightAware Approximate
02:45PM 14.9833 -64.1167 331° Northwest 460 529 45,000  Level San Juan Center
02:46PM 14.0292 -63.5825 331° Northwest  Level FlightAware Approximate
02:46PM 15.0833 -64.2000 321° Northwest 450 518 45,000  Level San Juan Center
02:47PM 14.1372 -63.6435 331° Northwest  Level FlightAware Approximate
02:47PM 15.1667 -64.2833 316° Northwest 450 518 45,000  Level San Juan Center
02:48PM 14.2452 -63.7046 331° Northwest  Level FlightAware Approximate
02:48PM 15.2667 -64.3667 321° Northwest 460 529 45,000  Level San Juan Center
02:49PM 14.3532 -63.7657 331° Northwest  Level FlightAware Approximate
02:49PM 15.3667 -64.4500 321° Northwest 460 529 45,000  Level San Juan Center
02:50PM 15.4667 -64.5333 321° Northwest 450 518 45,000  Level San Juan Center
02:51PM 15.5667 -64.6167 321° Northwest 450 518 45,000  Level San Juan Center
02:52PM 15.6667 -64.7000 321° Northwest 450 518 45,000  Level San Juan Center
02:53PM 15.7667 -64.7833 321° Northwest 450 518 45,000  Level San Juan Center
02:54PM 15.8667 -64.8667 321° Northwest 450 518 45,000  Level San Juan Center
02:55PM 15.9667 -64.9500 321° Northwest 450 518 45,000  Level San Juan Center
02:56PM 16.0667 -65.0333 321° Northwest 450 518 45,000  Level San Juan Center
02:57PM 16.1500 -65.1167 316° Northwest 450 518 45,000  Level San Juan Center
02:58PM 16.2500 -65.2000 321° Northwest 450 518 45,000  Level San Juan Center
02:59PM 16.3500 -65.2667 327° Northwest 450 518 45,000  Level San Juan Center
03:00PM 16.4500 -65.3500 321° Northwest 450 518 45,000  Level San Juan Center
03:01PM 16.5500 -65.4333 321° Northwest 450 518 45,000  Level San Juan Center
03:02PM 16.6500 -65.5167 321° Northwest 450 518 45,000  Level San Juan Center
03:03PM 16.7500 -65.6000 321° Northwest 450 518 45,000  Level San Juan Center
03:04PM 16.8333 -65.6833 316° Northwest 460 529 45,000  Level San Juan Center
03:05PM 16.9333 -65.7667 321° Northwest 450 518 45,000  Level San Juan Center
03:06PM 17.0333 -65.8500 321° Northwest 450 518 45,000  Level San Juan Center
03:07PM 17.1333 -65.9333 321° Northwest 450 518 45,000  Level San Juan Center
03:08PM 17.2333 -66.0167 321° Northwest 460 529 45,000  Level San Juan Center
03:09PM 17.3333 -66.1000 322° Northwest 450 518 45,000  Level San Juan Center
03:10PM 17.4333 -66.1833 322° Northwest 450 518 45,000  Level San Juan Center
03:11PM 17.5333 -66.2667 322° Northwest 460 529 45,000  Level San Juan Center
03:12PM 17.6333 -66.3500 322° Northwest 460 529 45,000  Level San Juan Center
03:13PM 17.7333 -66.4500 316° Northwest 460 529 45,000  Level San Juan Center
03:14PM 17.8333 -66.5333 322° Northwest 460 529 45,000  Level San Juan Center
03:15PM 17.9333 -66.6167 322° Northwest 450 518 45,000  Level San Juan Center
03:16PM 18.0167 -66.7000 316° Northwest 460 529 45,000  Level San Juan Center
03:17PM 18.1333 -66.8000 321° Northwest 470 541 45,000  Level San Juan Center
03:18PM 18.2167 -66.8667 323° Northwest 450 518 45,000  Level San Juan Center
03:19PM 18.3167 -66.9500 322° Northwest 450 518 45,000  Level San Juan Center
03:20PM 18.4167 -67.0333 322° Northwest 460 529 45,000  Level San Juan Center
03:21PM 18.5167 -67.1333 317° Northwest 460 529 45,000  Level San Juan Center
03:22PM 18.6000 -67.2333 311° West 460 529 45,000  Level San Juan Center
03:23PM 18.6667 -67.3500 301° West 460 529 45,000  Level San Juan Center
03:24PM 18.7500 -67.4500 311° West 460 529 45,000  Level San Juan Center
03:25PM 18.8333 -67.5500 311° West 460 529 45,000  Level San Juan Center
03:26PM 18.9167 -67.6667 307° West 460 529 45,000  Level San Juan Center
03:27PM 18.9833 -67.7667 305° West 450 518 45,000  Level San Juan Center
03:28PM 19.0667 -67.8667 311° West 460 529 45,000  Level San Juan Center
03:29PM 19.1500 -67.9833 307° West 460 529 45,000  Level San Juan Center
03:30PM 19.2333 -68.0833 311° West 460 529 45,000  Level San Juan Center
03:31PM 19.3000 -68.1833 305° West 460 529 45,000  Level San Juan Center
03:33PM 19.4822 -68.4208 309° West 482 555 45,000  Level Miami Center
03:34PM 19.5586 -68.5283 307° West 468 539 45,000  Level Miami Center
03:35PM 19.6253 -68.6472 301° West 463 533 45,000  Level Miami Center
03:36PM 19.6917 -68.7619 302° West 458 527 45,000  Level Miami Center
03:37PM 19.7581 -68.8789 301° West 458 527 45,000  Level Miami Center
03:38PM 19.8264 -68.9961 302° West 464 534 45,000  Level Miami Center
03:39PM 19.8903 -69.1136 300° West 464 534 45,000  Level Miami Center
03:40PM 19.9564 -69.2308 301° West 464 534 45,000  Level Miami Center
03:41PM 20.0225 -69.3483 301° West 469 540 45,000  Level Miami Center
03:42PM 20.0886 -69.4661 301° West 469 540 45,000  Level Miami Center
03:43PM 20.1544 -69.5817 301° West 462 532 45,000  Level Miami Center
03:44PM 20.2200 -69.6972 301° West 462 532 45,000  Level Miami Center
03:45PM 20.2900 -69.8150 302° West 462 532 45,000  Level Miami Center
03:46PM 20.3539 -69.9356 299° West 462 532 45,000  Level Miami Center
03:47PM 20.4192 -70.0514 301° West 462 532 45,000  Level Miami Center
03:48PM 20.4828 -70.1700 300° West 467 537 45,000  Level Miami Center
03:49PM 20.5503 -70.2861 302° West 467 537 45,000  Level Miami Center
03:50PM 20.6156 -70.4025 301° West 462 532 45,000  Level Miami Center
03:51PM 20.6828 -70.5189 302° West 462 532 45,000  Level Miami Center
03:52PM 20.7461 -70.6378 300° West 462 532 45,000  Level Miami Center
03:53PM 20.8114 -70.7567 300° West 462 532 45,000  Level Miami Center
03:54PM 20.8742 -70.8758 299° West 462 532 45,000  Level Miami Center
03:55PM 20.9325 -70.9778 302° West 462 532 45,000  Level Miami Center
03:56PM 20.9975 -71.0969 300° West 462 532 45,000  Level Miami Center
03:57PM 21.0581 -71.2144 299° West 457 526 45,000  Level Miami Center
03:58PM 21.1250 -71.3339 301° West 457 526 45,000  Level Miami Center
03:59PM 21.1917 -71.4556 300° West 457 526 45,000  Level Miami Center
04:00PM 21.2564 -71.5708 301° West 457 526 45,000  Level Miami Center
04:01PM 21.3208 -71.6886 300° West 457 526 45,000  Level Miami Center
04:02PM 21.3875 -71.8086 301° West 457 526 45,000  Level Miami Center
04:03PM 21.4539 -71.9286 301° West 457 526 45,000  Level Miami Center
04:04PM 21.5203 -72.0489 301° West 462 532 45,000  Level Miami Center
04:05PM 21.5825 -72.1669 300° West 462 532 45,000  Level Miami Center
04:06PM 21.6486 -72.2875 301° West 462 532 45,000  Level Miami Center
04:07PM 21.7125 -72.4058 300° West 462 532 45,000  Level Miami Center
04:08PM 21.7789 -72.5289 300° West 462 532 45,000  Level Miami Center
04:09PM 21.8406 -72.6475 299° West 462 532 45,000  Level Miami Center
04:10PM 21.9086 -72.7706 301° West 467 537 45,000  Level Miami Center
04:11PM 21.9722 -72.8894 300° West 467 537 45,000  Level Miami Center
04:12PM 22.0403 -73.0172 300° West 467 537 45,000  Level Miami Center
04:13PM 22.1039 -73.1364 300° West 462 532 45,000  Level Miami Center
04:15PM 22.2328 -73.3772 300° West 462 532 45,000  Level Miami Center
04:16PM 22.2853 -73.4858 298° West 457 526 45,000  Level Miami Center
04:17PM 22.3483 -73.6053 300° West 457 526 45,000  Level Miami Center
04:18PM 22.4114 -73.7250 300° West 457 526 45,000  Level Miami Center
04:19PM 22.4744 -73.8450 300° West 457 526 45,000  Level Miami Center
04:20PM 22.5394 -73.9669 300° West 457 526 45,000  Level Miami Center
04:21PM 22.6025 -74.0894 299° West 457 526 45,000  Level Miami Center
04:22PM 22.6672 -74.2094 300° West 457 526 45,000  Level Miami Center
04:23PM 22.7300 -74.3344 299° West 462 532 45,000  Level Miami Center
04:24PM 22.7925 -74.4525 300° West 456 525 45,000  Level Miami Center
04:25PM 22.8569 -74.5775 299° West 456 525 45,000  Level Miami Center
04:26PM 22.9217 -74.7006 300° West 456 525 45,000  Level Miami Center
04:27PM 22.9858 -74.8233 300° West 461 531 45,000  Level Miami Center
04:28PM 23.0481 -74.9467 299° West 461 531 45,000  Level Miami Center
04:29PM 23.1122 -75.0678 300° West 461 531 45,000  Level Miami Center
04:30PM 23.1744 -75.1911 299° West 461 531 45,000  Level Miami Center
04:31PM 23.2361 -75.3125 299° West 461 531 45,000 -120 Level Miami Center
04:32PM 23.3003 -75.4383 299° West 461 531 44,800 -480 Descending Miami Center
04:33PM 23.3619 -75.5575 299° West 461 531 44,100 -780 Descending Miami Center
04:34PM 23.4319 -75.6950 299° West 456 525 43,300 -600 Descending Miami Center
04:35PM 23.5039 -75.8122 304° West 461 531 43,000 -180 Descending Miami Center
04:36PM 23.5633 -75.9544 295° West 483 556 43,000  Level Miami Center
04:37PM 23.6247 -76.0742 299° West 476 548 43,000  Level Miami Center
04:38PM 23.6858 -76.1964 299° West 468 539 43,000  Level Miami Center
04:39PM 23.7469 -76.3208 298° West 468 539 43,000  Level Miami Center
04:40PM 23.8058 -76.4433 298° West 463 533 43,000  Level Miami Center
04:41PM 23.8689 -76.5636 300° West 458 527 43,000  Level Miami Center
04:42PM 23.9297 -76.6861 299° West 453 521 43,000  Level Miami Center
04:43PM 23.9883 -76.8089 298° West 458 527 43,000  Level Miami Center
04:44PM 24.0406 -76.9133 299° West 453 521 43,000  Level Miami Center
04:45PM 24.1011 -77.0364 298° West 453 521 43,000  Level Miami Center
04:46PM 24.1636 -77.1572 300° West 453 521 43,000  Level Miami Center
04:47PM 24.2217 -77.2828 297° West 453 521 43,000  Level Miami Center
04:48PM 24.2819 -77.4083 298° West 453 521 43,000  Level Miami Center
04:49PM 24.3400 -77.5294 298° West 453 521 43,000  Level Miami Center
04:50PM 24.4019 -77.6553 298° West 453 521 43,000  Level Miami Center
04:51PM 24.4597 -77.7789 297° West 458 527 43,000  Level Miami Center
04:52PM 24.5217 -77.9072 298° West 458 527 43,000  Level Miami Center
04:53PM 24.5836 -78.0289 299° West 458 527 43,000 -720 Level Miami Center
04:54PM 24.6411 -78.1528 297° West 458 527 41,600 -1,500 Descending Miami Center
04:55PM 24.7025 -78.2747 299° West 458 527 40,000 -1,560 Descending Miami Center
04:56PM 24.7578 -78.3944 297° West 453 521 38,500 -1,620 Descending Miami Center
04:57PM 24.8172 -78.5164 298° West 448 516 36,800 -1,800 Descending Miami Center
04:58PM 24.8783 -78.6411 298° West 453 521 35,000 -1,920 Descending Miami Center
04:59PM 24.9375 -78.7703 297° West 459 528 33,000 -2,700 Descending Miami Center
05:00PM 25.0006 -78.8972 299° West 465 535 29,600 -3,540 Descending Miami Center
05:01PM 25.0717 -79.0383 299° West 471 542 26,000 -3,300 Descending Miami Center
05:02PM 25.1283 -79.1633 297° West 471 542 23,000 -2,700 Descending Miami Center
05:03PM 25.1747 -79.2606 298° West 465 535 20,700 -2,760 Descending Miami Center
05:04PM 25.2372 -79.3975 297° West 445 512 17,500 -2,820 Descending Miami Center
05:04PM 25.2633 -79.4600 295° West 377 434 16,200 -2,340 Descending Miami Center
05:05PM 25.2856 -79.4994 302° West 406 467 15,200 -2,220 Descending Miami Center
05:06PM 25.3197 -79.5783 296° West 343 395 13,500 -2,220 Descending Miami Center
05:06PM 25.3297 -79.5925 308° West 369 425 13,000 -2,100 Descending Miami Center
05:07PM 25.3597 -79.6667 294° West 313 360 11,400 -2,040 Descending Miami Center
05:07PM 25.3700 -79.6783 314° West 333 383 11,000 -1,440 Descending Miami Center
05:08PM 25.4214 -79.7186 325° Northwest 297 342 10,100 -1,020 Descending Miami Center
05:08PM 25.4422 -79.7283 337° Northwest 301 346 10,000 -360 Descending Miami Center
05:09PM 25.5122 -79.7783 327° Northwest 295 339 9,700 -1,020 Descending Miami Center
05:10PM 25.5678 -79.8189 327° Northwest 296 341 8,200 -1,920 Descending Miami Center
05:10PM 25.5822 -79.8261 336° Northwest 295 339 7,800 -1,800 Descending Miami Center
05:11PM 25.6397 -79.8714 325° Northwest 286 329 6,200 -1,800 Descending Miami Center
05:11PM 25.6481 -79.8739 345° North 295 339 6,000 -1,680 Descending Miami Center
05:12PM 25.7100 -79.9192 327° Northwest 270 311 4,500 -1,740 Descending Miami Center
05:12PM 25.7161 -79.9169 18° North 290 334 4,300 -540 Descending Miami Center
05:13PM 25.7717 -79.9622 324° Northwest 247 284 4,000 -300 Descending Miami Center
05:13PM 25.7758 -79.9600 26° Northeast 271 312 4,000 -120 Level Miami Center
05:14PM 25.8017 -80.0208 295° West 227 261 3,900 -240 Descending Miami Center
05:14PM 25.8058 -80.0208 360° North 234 269 3,800 -1,500 Descending Miami Center
05:15PM 25.8089 -80.0786 273° West 226 260 2,700 -960 Descending Miami Center
05:16PM 25.8072 -80.1478 268° West 180 207 2,000 -540 Descending Miami Center
05:17PM 25.8061 -80.2056 269° West 155 178 1,600 -660 Descending Miami Center
05:18PM 25.8028 -80.2517 265° West 154 177 600 -1,020 Descending Miami Center
05:20PM 25.7833 -80.2833 90° East  Level FlightAware Approximate
05:27PM 25.7954 -80.2901 90° East  Level Estimated